Saturday, October 25, 2014
19:47 UTC
  |  Log In   |  Register Free
Airport Search:

Petaluma Municipal Airport
(KO69)

Petaluma Municipal Airport Diagram
No Airport Diagram Available

FAA data valid effective September 18, 2014 - November 13, 2014 (unless otherwise noted).

 
 
 
 
 
 
 
 
 
 
 
 
 
 

Current Aviation Weather for Petaluma Municipal Airport (KO69)

The most recent METAR observation for KO69 was updated at: 1910
METAR Summary (Translated METAR)
KO69
251855Z AUTO 22011G19KT 7SM FEW028 SCT033 BKN047 20/14 A3005 RMK AO1
KDVO
251855Z AUTO 21015G18KT 10SM SCT030 BKN035 BKN043 20/14 A3004 RMK AO2
(7.3 nm SE from KO69)
KAPC
251854Z 20016G22KT 10SM SCT036 SCT055 21/15 A3003 RMK AO2 PK WND 21026/1815 RAB1758E33 SLP160 P0000 T02060150
(15.6 nm SE from KO69)
TAF
No TAF information found within 50 nm of KDVO
  Airport Weather Conditions for KO69

 Current Weather at O69
68° F
Mostly Cloudy
Southwest winds at 12.7 mph
O69 NOAA Radar

Pressure: 30.05 in
Humidity: 69%
Wind: from the Southwest at 12.7 gusting to 21.9 MPH (11 gusting to 19 KT)
Dew Point: 57.2°F
Visibility: 7.00 mi


Airport Weather Forecast for KO69

Translated METAR and TAF for KDVO
Translated METAR for KDVO (1942 UTC 25 October 2014)
found at http://aviationweather.gov/adds/metars/
 
METAR text: KDVO 251935Z AUTO 22019G25KT 10SM BKN033 BKN050 21/13 A3004 RMK AO2
Conditions at: KDVO (NOVATO/GNOSS FLD, CA, US) observed 1935 UTC 25 October 2014
Temperature: 21.0°C (70°F)
Dewpoint: 13.0°C (55°F) [RH = 60%]
Pressure (altimeter): 30.04 inches Hg (1017.4 mb)
Winds: from the SW (220 degrees) at 22 MPH (19 knots; 9.9 m/s)
gusting to 29 MPH (25 knots; 13.0 m/s)
Visibility: 10 or more miles (16+ km)
Ceiling: 3300 feet AGL
Clouds: broken clouds at 3300 feet AGL
broken clouds at 5000 feet AGL
Weather: automated observation with no human augmentation;
there may or may not be significant weather present at this time
Translated TAF for KDVO

There is no translated TAF available for this airport

Find All Airport Services Find A Hotel Find A Rental Car Find A Golf Course Find A Restaurant $100 Hamburger



FBO's on the Field
FBO Company Facility Photos Services Transportation Aviation Fuel Prices: Prices include tax
Catering Weather Repair Courtesy Rental Type 100LL JetA JetA+ MOGAS 8087
 
Petaluma Municipal Airport

Currently rated 4.8 by 1 person
FS:Ascent
Last Updated: Oct-12
Login to update fuel prices
SS:
Contact Petaluma Municipal AirportMore FBO Information
 
Add another FBO Facility Photos Catering Weather Repair Courtesy Rental Type 100LL JetA JetA+ MOGAS 8087
Services Transportation Aviation Fuel Prices: Prices include tax


model-print
model-print
model-print
model-print